createdAt,value
2019-01-27T00:00:33.079Z,3.15
2019-01-27T00:03:01.067Z,3.20
2019-01-27T00:05:29.048Z,3.17
2019-01-27T00:07:57.230Z,2.22
2019-01-27T00:10:25.654Z,2.90
2019-01-27T00:12:53.834Z,2.35
2019-01-27T00:15:22.209Z,2.30
2019-01-27T00:17:50.410Z,2.55
2019-01-27T00:20:18.838Z,2.60
2019-01-27T00:22:47.178Z,2.10
2019-01-27T00:25:15.182Z,2.10
2019-01-27T00:27:43.469Z,2.27
2019-01-27T00:30:19.005Z,2.20
2019-01-27T00:32:47.117Z,2.10
2019-01-27T00:35:15.862Z,1.47
2019-01-27T00:37:44.171Z,1.55
2019-01-27T00:40:13.109Z,2.10
2019-01-27T00:42:41.542Z,1.92
2019-01-27T00:45:12.621Z,1.22
2019-01-27T00:47:40.665Z,1.30
2019-01-27T00:50:11.152Z,1.50
2019-01-27T00:52:39.220Z,1.60
2019-01-27T00:55:12.637Z,1.47
2019-01-27T00:57:40.695Z,1.55
2019-01-27T01:00:12.732Z,1.47
2019-01-27T01:02:41.149Z,1.05
2019-01-27T01:05:09.462Z,1.30
2019-01-27T01:07:37.550Z,1.20
2019-01-27T01:10:08.164Z,1.10
2019-01-27T01:12:36.426Z,1.20
2019-01-27T01:15:07.673Z,1.10
2019-01-27T01:17:35.652Z,0.90
2019-01-27T01:20:05.685Z,1.50
2019-01-27T01:22:33.816Z,1.40
2019-01-27T01:25:02.901Z,1.00
2019-01-27T01:27:30.924Z,1.00
2019-01-27T01:29:59.299Z,1.20
2019-01-27T01:32:27.278Z,0.88
2019-01-27T01:34:55.280Z,0.90
2019-01-27T01:37:23.335Z,1.10
2019-01-27T01:39:51.403Z,0.90
2019-01-27T01:42:19.819Z,1.35
2019-01-27T01:44:47.902Z,1.00
2019-01-27T01:47:15.962Z,0.93
2019-01-27T01:49:44.049Z,1.07
2019-01-27T01:52:12.097Z,0.90
2019-01-27T01:54:40.093Z,0.90
2019-01-27T01:57:08.225Z,1.10
2019-01-27T01:59:36.237Z,0.90
2019-01-27T02:02:05.362Z,0.85
2019-01-27T02:04:33.397Z,0.70
2019-01-27T02:07:01.591Z,0.82
2019-01-27T02:09:30.018Z,0.90
2019-01-27T02:11:58.167Z,1.10
2019-01-27T02:14:26.282Z,1.07
2019-01-27T02:16:57.327Z,0.82
2019-01-27T02:19:25.468Z,0.75
2019-01-27T02:21:53.595Z,0.90
2019-01-27T02:24:21.591Z,0.70
2019-01-27T02:26:49.949Z,0.70
2019-01-27T02:29:19.047Z,0.90
2019-01-27T02:31:47.205Z,0.90
2019-01-27T02:34:15.310Z,0.78
2019-01-27T02:36:43.396Z,0.82
2019-01-27T02:39:11.543Z,0.80
2019-01-27T02:41:40.251Z,0.80
2019-01-27T02:44:08.221Z,0.80
2019-01-27T02:46:36.213Z,2.22
2019-01-27T02:49:05.140Z,0.80
2019-01-27T02:51:33.275Z,0.68
2019-01-27T02:54:01.297Z,0.90
2019-01-27T02:56:29.820Z,0.90
2019-01-27T02:58:57.845Z,0.70
2019-01-27T03:01:26.277Z,0.60
2019-01-27T03:03:54.259Z,0.75
2019-01-27T03:06:54.662Z,1.00
2019-01-27T03:09:35.891Z,0.60
2019-01-27T03:12:05.524Z,0.90
2019-01-27T03:14:34.131Z,0.72
2019-01-27T03:17:05.714Z,0.60
2019-01-27T03:19:34.524Z,0.70
2019-01-27T03:22:02.657Z,0.70
2019-01-27T03:24:30.590Z,0.70
2019-01-27T03:26:58.752Z,0.60
2019-01-27T03:29:26.870Z,0.70
2019-01-27T03:31:55.234Z,0.60
2019-01-27T03:34:23.397Z,0.70
2019-01-27T03:36:51.914Z,0.50
2019-01-27T03:39:19.927Z,0.90
2019-01-27T03:41:48.047Z,0.60
2019-01-27T03:44:16.103Z,0.50
2019-01-27T03:46:44.217Z,0.65
2019-01-27T03:49:12.184Z,0.68
2019-01-27T03:51:40.154Z,0.70
2019-01-27T03:54:08.257Z,0.60
2019-01-27T03:56:36.310Z,0.60
2019-01-27T03:59:04.667Z,0.70
2019-01-27T04:01:32.755Z,0.70
2019-01-27T04:04:00.932Z,0.70
2019-01-27T04:06:29.086Z,0.50
2019-01-27T04:08:57.529Z,0.60
2019-01-27T04:11:25.758Z,0.50
2019-01-27T04:13:54.631Z,0.50
2019-01-27T04:16:22.867Z,0.60
2019-01-27T04:18:50.948Z,0.70
2019-01-27T04:21:20.393Z,0.50
2019-01-27T04:23:48.650Z,0.50
2019-01-27T04:26:16.750Z,0.50
2019-01-27T04:28:45.723Z,0.55
2019-01-27T04:31:14.318Z,0.50
2019-01-27T04:33:42.378Z,0.55
2019-01-27T04:36:10.418Z,0.60
2019-01-27T04:38:38.523Z,0.60
2019-01-27T04:41:07.114Z,0.90
2019-01-27T04:43:35.108Z,0.60
2019-01-27T04:46:03.612Z,0.50
2019-01-27T04:48:32.226Z,0.57
2019-01-27T04:51:00.409Z,0.60
2019-01-27T04:53:28.457Z,0.60
2019-01-27T04:55:56.527Z,0.60
2019-01-27T04:58:24.887Z,0.53
2019-01-27T05:00:53.330Z,0.60
2019-01-27T05:03:45.345Z,0.50
2019-01-27T05:06:13.449Z,0.40
2019-01-27T05:08:41.414Z,0.50
2019-01-27T05:11:09.789Z,0.80
2019-01-27T05:13:37.772Z,0.60
2019-01-27T05:16:05.841Z,0.60
2019-01-27T05:18:33.933Z,0.50
2019-01-27T05:21:02.001Z,0.60
2019-01-27T05:23:30.086Z,0.50
2019-01-27T05:25:58.418Z,0.65
2019-01-27T05:28:28.375Z,0.50
2019-01-27T05:30:56.313Z,0.60
2019-01-27T05:33:24.820Z,0.60
2019-01-27T05:35:52.784Z,0.60
2019-01-27T05:38:20.979Z,0.53
2019-01-27T05:40:49.050Z,0.60
2019-01-27T05:43:17.132Z,0.60
2019-01-27T05:45:46.808Z,0.60
2019-01-27T05:48:15.037Z,0.68
2019-01-27T05:50:43.073Z,0.75
2019-01-27T05:53:11.060Z,0.53
2019-01-27T05:55:39.164Z,0.65
2019-01-27T05:58:07.389Z,1.02
2019-01-27T06:00:41.332Z,0.60
2019-01-27T06:03:09.518Z,0.60
2019-01-27T06:05:38.145Z,0.70
2019-01-27T06:08:06.125Z,0.53
2019-01-27T06:10:34.154Z,0.60
2019-01-27T06:13:02.749Z,0.60
2019-01-27T06:15:30.868Z,0.60
2019-01-27T06:17:58.889Z,0.70
2019-01-27T06:20:27.943Z,0.50
2019-01-27T06:22:56.145Z,0.60
2019-01-27T06:25:26.319Z,0.60
2019-01-27T06:27:54.090Z,0.40
2019-01-27T06:30:23.982Z,0.50
2019-01-27T06:33:14.947Z,0.55
2019-01-27T06:35:43.776Z,0.55
2019-01-27T06:38:12.285Z,0.50
2019-01-27T06:40:43.564Z,0.60
2019-01-27T06:43:11.553Z,0.60
2019-01-27T06:45:39.652Z,0.50
2019-01-27T06:48:07.932Z,0.60
2019-01-27T06:50:36.585Z,0.60
2019-01-27T06:53:04.687Z,0.62
2019-01-27T06:55:32.674Z,0.60
2019-01-27T06:58:01.131Z,0.60
2019-01-27T07:00:45.359Z,0.60
2019-01-27T07:03:39.170Z,0.68
2019-01-27T07:06:25.682Z,0.60
2019-01-27T07:09:19.241Z,0.60
2019-01-27T07:12:12.786Z,0.70
2019-01-27T07:14:59.168Z,0.80
2019-01-27T07:17:46.308Z,0.60
2019-01-27T07:20:38.008Z,0.60
2019-01-27T07:23:37.621Z,0.85
2019-01-27T07:26:27.690Z,0.60
2019-01-27T07:29:04.537Z,0.70
2019-01-27T07:32:04.238Z,0.62
2019-01-27T07:34:49.407Z,0.75
2019-01-27T07:37:49.344Z,0.70
2019-01-27T07:40:23.348Z,0.72
2019-01-27T07:42:56.377Z,0.80
2019-01-27T07:45:32.566Z,0.70
2019-01-27T07:48:06.438Z,0.68
2019-01-27T07:51:09.097Z,0.65
2019-01-27T07:53:58.890Z,0.57
2019-01-27T07:56:50.130Z,0.62
2019-01-27T07:59:46.894Z,0.60
2019-01-27T08:02:31.942Z,0.60
2019-01-27T08:05:28.566Z,0.60
2019-01-27T08:08:15.253Z,0.60
2019-01-27T08:10:51.845Z,0.60
2019-01-27T08:13:41.213Z,0.50
2019-01-27T08:16:32.056Z,0.60
2019-01-27T08:19:23.689Z,0.60
2019-01-27T08:22:11.371Z,0.70
2019-01-27T08:24:49.241Z,0.60
2019-01-27T08:27:24.650Z,0.60
2019-01-27T08:30:18.766Z,0.65
2019-01-27T08:32:55.691Z,0.65
2019-01-27T08:35:31.852Z,1.05
2019-01-27T08:38:09.263Z,0.68
2019-01-27T08:40:48.314Z,0.50
2019-01-27T08:43:38.803Z,0.90
2019-01-27T08:46:21.827Z,0.60
2019-01-27T08:48:49.824Z,0.60
2019-01-27T08:51:19.650Z,0.53
2019-01-27T08:53:47.706Z,0.80
2019-01-27T08:56:16.696Z,0.95
2019-01-27T08:58:44.819Z,0.95
2019-01-27T09:01:28.089Z,0.90
2019-01-27T09:04:04.641Z,0.85
2019-01-27T09:06:40.111Z,0.82
2019-01-27T09:09:26.914Z,0.70
2019-01-27T09:12:13.230Z,0.85
2019-01-27T09:14:46.930Z,1.42
2019-01-27T09:17:46.926Z,0.80
2019-01-27T09:20:28.441Z,1.00
2019-01-27T09:23:15.848Z,1.10
2019-01-27T09:26:09.517Z,0.60
2019-01-27T09:28:49.399Z,0.70
2019-01-27T09:31:22.713Z,0.90
2019-01-27T09:34:13.195Z,0.95
2019-01-27T09:36:58.548Z,0.70
2019-01-27T09:39:36.785Z,1.92
2019-01-27T09:42:29.343Z,0.80
2019-01-27T09:45:08.503Z,0.65
2019-01-27T09:47:50.932Z,0.70
2019-01-27T09:50:38.688Z,1.00
2019-01-27T09:53:19.198Z,2.33
2019-01-27T09:56:12.707Z,1.00
2019-01-27T09:59:08.070Z,0.98
2019-01-27T10:01:56.229Z,1.05
2019-01-27T10:04:47.658Z,1.10
2019-01-27T10:07:24.037Z,0.93
2019-01-27T10:10:10.599Z,1.00
2019-01-27T10:13:01.172Z,1.25
2019-01-27T10:15:47.586Z,0.70
2019-01-27T10:18:29.689Z,0.65
2019-01-27T10:21:29.923Z,0.80
2019-01-27T10:24:14.590Z,0.60
2019-01-27T10:26:57.114Z,0.70
2019-01-27T10:29:31.834Z,0.70
2019-01-27T10:32:34.230Z,0.60
2019-01-27T10:35:08.444Z,0.60
2019-01-27T10:38:04.891Z,0.70
2019-01-27T10:40:40.230Z,0.65
2019-01-27T10:43:22.505Z,0.60
2019-01-27T10:46:01.731Z,0.57
2019-01-27T10:48:49.497Z,0.50
2019-01-27T10:51:40.322Z,0.60
2019-01-27T10:54:40.343Z,0.60
2019-01-27T10:57:16.294Z,0.50
2019-01-27T10:59:52.044Z,0.62
2019-01-27T11:02:36.756Z,0.95
2019-01-27T11:05:39.112Z,0.62
2019-01-27T11:08:23.488Z,0.70
2019-01-27T11:11:26.327Z,0.90
2019-01-27T11:14:14.090Z,1.00
2019-01-27T11:17:01.028Z,0.80
2019-01-27T11:20:06.825Z,0.88
2019-01-27T11:22:57.478Z,0.80
2019-01-27T11:25:47.772Z,1.55
2019-01-27T11:28:41.454Z,1.20
2019-01-27T11:31:27.750Z,1.70
2019-01-27T11:34:12.450Z,1.00
2019-01-27T11:36:56.406Z,1.20
2019-01-27T11:39:35.753Z,1.17
2019-01-27T11:42:27.198Z,0.90
2019-01-27T11:45:09.296Z,1.25
2019-01-27T11:48:12.011Z,0.93
2019-01-27T11:51:02.229Z,0.80
2019-01-27T11:53:30.358Z,0.85
2019-01-27T11:55:58.514Z,1.07
2019-01-27T11:58:26.789Z,0.60
2019-01-27T12:00:58.240Z,0.80
2019-01-27T12:03:26.218Z,0.60
2019-01-27T12:05:54.381Z,1.00
2019-01-27T12:08:22.494Z,1.05
2019-01-27T12:10:50.650Z,1.00
2019-01-27T12:13:19.001Z,0.70
2019-01-27T12:15:47.129Z,1.07
2019-01-27T12:18:16.134Z,1.15
2019-01-27T12:20:46.116Z,0.75
2019-01-27T12:23:15.582Z,0.80
2019-01-27T12:25:45.378Z,0.88
2019-01-27T12:28:14.832Z,0.70
2019-01-27T12:30:44.273Z,0.90
2019-01-27T12:33:16.909Z,0.75
2019-01-27T12:35:45.061Z,0.90
2019-01-27T12:38:13.167Z,0.90
2019-01-27T12:40:41.854Z,0.70
2019-01-27T12:43:09.815Z,0.82
2019-01-27T12:45:38.703Z,1.00
2019-01-27T12:48:06.789Z,0.60
2019-01-27T12:50:34.846Z,0.70
2019-01-27T12:53:03.046Z,1.00
2019-01-27T12:55:31.566Z,0.70
2019-01-27T12:58:00.214Z,0.95
2019-01-27T13:00:35.745Z,0.98
2019-01-27T13:03:03.736Z,0.80
2019-01-27T13:05:33.600Z,0.90
2019-01-27T13:08:01.565Z,0.70
2019-01-27T13:10:29.641Z,0.70
2019-01-27T13:12:58.288Z,0.70
2019-01-27T13:15:26.574Z,0.80
2019-01-27T13:17:54.706Z,0.95
2019-01-27T13:20:22.629Z,1.17
2019-01-27T13:22:50.685Z,0.70
2019-01-27T13:25:20.026Z,0.70
2019-01-27T13:27:48.173Z,0.80
2019-01-27T13:30:19.048Z,0.70
2019-01-27T13:32:47.487Z,0.72
2019-01-27T13:35:16.111Z,0.80
2019-01-27T13:37:44.212Z,0.70
2019-01-27T13:40:17.245Z,1.00
2019-01-27T13:42:45.629Z,0.80
2019-01-27T13:45:20.730Z,0.90
2019-01-27T13:47:49.200Z,1.00
2019-01-27T13:50:17.434Z,0.90
2019-01-27T13:52:45.454Z,1.30
2019-01-27T13:55:18.094Z,1.20
2019-01-27T13:57:46.403Z,0.88
2019-01-27T14:00:21.878Z,1.00
2019-01-27T14:02:50.267Z,0.75
2019-01-27T14:05:18.393Z,0.90
2019-01-27T14:07:46.530Z,1.00
2019-01-27T14:10:18.298Z,1.10
2019-01-27T14:12:46.610Z,0.80
2019-01-27T14:15:18.918Z,0.80
2019-01-27T14:17:46.954Z,1.07
2019-01-27T14:20:16.519Z,0.80
2019-01-27T14:22:44.738Z,0.90
2019-01-27T14:25:15.369Z,0.70
2019-01-27T14:27:43.390Z,0.82
2019-01-27T14:30:18.209Z,0.90
2019-01-27T14:32:46.150Z,1.10
2019-01-27T14:35:14.479Z,0.80
2019-01-27T14:37:42.783Z,1.00
2019-01-27T14:40:14.698Z,0.80
2019-01-27T14:42:42.784Z,0.88
2019-01-27T14:45:18.425Z,0.90
2019-01-27T14:47:46.769Z,1.00
2019-01-27T14:50:19.586Z,1.10
2019-01-27T14:52:47.747Z,0.90
2019-01-27T14:55:17.369Z,0.85
2019-01-27T14:57:45.429Z,0.65
2019-01-27T15:00:20.368Z,0.93
2019-01-27T15:02:48.753Z,0.70
2019-01-27T15:05:16.848Z,1.22
2019-01-27T15:07:45.503Z,0.80
2019-01-27T15:10:16.878Z,0.60
2019-01-27T15:12:45.088Z,0.70
2019-01-27T15:15:16.282Z,0.80
2019-01-27T15:17:45.213Z,0.75
2019-01-27T15:20:30.491Z,0.80
2019-01-27T15:22:58.855Z,0.70
2019-01-27T15:25:27.169Z,0.80
2019-01-27T15:27:55.203Z,0.70
2019-01-27T15:30:26.698Z,0.80
2019-01-27T15:32:56.307Z,0.90
2019-01-27T15:35:24.254Z,0.70
2019-01-27T15:37:53.095Z,1.27
2019-01-27T15:40:21.131Z,0.80
2019-01-27T15:42:49.061Z,1.00
2019-01-27T15:45:20.963Z,0.90
2019-01-27T15:47:48.939Z,1.02
2019-01-27T15:50:20.388Z,1.05
2019-01-27T15:52:48.612Z,1.05
2019-01-27T15:55:18.568Z,1.40
2019-01-27T15:57:46.969Z,1.15
2019-01-27T16:00:18.736Z,1.17
2019-01-27T16:02:47.299Z,0.93
2019-01-27T16:05:17.646Z,1.00
2019-01-27T16:07:46.229Z,1.00
2019-01-27T16:10:17.640Z,0.90
2019-01-27T16:12:46.336Z,0.88
2019-01-27T16:15:18.772Z,0.95
2019-01-27T16:17:46.940Z,0.80
2019-01-27T16:20:15.762Z,1.20
2019-01-27T16:22:53.444Z,0.90
2019-01-27T16:25:21.449Z,1.62
2019-01-27T16:27:49.933Z,1.60
2019-01-27T16:30:50.400Z,1.70
2019-01-27T16:33:26.378Z,1.17
2019-01-27T16:35:54.460Z,1.67
2019-01-27T16:38:22.772Z,1.60
2019-01-27T16:40:50.859Z,2.08
2019-01-27T16:43:19.460Z,1.00
2019-01-27T16:45:50.856Z,2.00
2019-01-27T16:48:18.879Z,0.80
2019-01-27T16:50:47.303Z,1.47
2019-01-27T16:53:15.262Z,1.35
2019-01-27T16:55:43.212Z,1.15
2019-01-27T16:58:11.713Z,0.88
2019-01-27T17:00:39.874Z,1.25
2019-01-27T17:03:08.019Z,1.30
2019-01-27T17:05:36.501Z,0.80
2019-01-27T17:08:05.211Z,0.95
2019-01-27T17:10:33.933Z,0.88
2019-01-27T17:13:02.551Z,0.85
2019-01-27T17:15:31.471Z,0.98
2019-01-27T17:18:00.159Z,0.90
2019-01-27T17:20:28.875Z,1.15
2019-01-27T17:22:56.989Z,1.25
2019-01-27T17:25:26.017Z,1.15
2019-01-27T17:27:54.266Z,1.57
2019-01-27T17:30:23.065Z,1.40
2019-01-27T17:32:52.543Z,1.00
2019-01-27T17:35:21.599Z,1.20
2019-01-27T17:37:49.694Z,0.95
2019-01-27T17:40:17.815Z,1.30
2019-01-27T17:42:46.121Z,0.93
2019-01-27T17:45:15.762Z,1.35
2019-01-27T17:47:44.203Z,1.02
2019-01-27T17:50:14.791Z,1.25
2019-01-27T17:52:42.818Z,1.40
2019-01-27T17:55:33.451Z,1.30
2019-01-27T17:58:14.181Z,1.55
2019-01-27T18:01:20.157Z,1.42
2019-01-27T18:03:56.589Z,1.42
2019-01-27T18:06:33.470Z,1.75
2019-01-27T18:09:09.448Z,1.30
2019-01-27T18:11:51.178Z,2.22
2019-01-27T18:14:27.087Z,1.00
2019-01-27T18:16:55.302Z,0.90
2019-01-27T18:19:23.315Z,1.10
2019-01-27T18:21:51.283Z,1.50
2019-01-27T18:24:21.052Z,0.90
2019-01-27T18:26:49.099Z,0.80
2019-01-27T18:29:17.222Z,0.70
2019-01-27T18:31:45.461Z,0.70
2019-01-27T18:34:13.868Z,0.70
2019-01-27T18:36:42.054Z,0.50
2019-01-27T18:39:11.917Z,0.60
2019-01-27T18:41:41.257Z,0.80
2019-01-27T18:44:09.536Z,0.57
2019-01-27T18:46:38.190Z,0.53
2019-01-27T18:49:06.687Z,0.65
2019-01-27T18:51:34.979Z,0.60
2019-01-27T18:54:32.114Z,0.60
2019-01-27T18:57:14.350Z,0.80
2019-01-27T19:00:02.579Z,0.80
2019-01-27T19:02:54.398Z,0.70
2019-01-27T19:05:41.050Z,0.60
2019-01-27T19:08:18.313Z,0.80
2019-01-27T19:11:23.059Z,1.00
2019-01-27T19:14:21.322Z,0.80
2019-01-27T19:17:09.735Z,0.60
2019-01-27T19:19:59.375Z,0.85
2019-01-27T19:22:38.569Z,0.70
2019-01-27T19:25:27.845Z,0.60
2019-01-27T19:28:22.025Z,0.78
2019-01-27T19:31:25.296Z,1.10
2019-01-27T19:34:15.680Z,0.90
2019-01-27T19:37:06.821Z,0.80
2019-01-27T19:39:44.119Z,0.93
2019-01-27T19:42:32.495Z,3.05
2019-01-27T19:45:27.488Z,1.17
2019-01-27T19:48:06.461Z,1.52
2019-01-27T19:50:48.895Z,1.70
2019-01-27T19:53:25.117Z,0.88
2019-01-27T19:56:21.126Z,0.50
2019-01-27T19:59:09.378Z,0.55
2019-01-27T20:02:00.984Z,0.70
2019-01-27T20:04:36.598Z,0.65
2019-01-27T20:07:14.146Z,0.70
2019-01-27T20:10:00.746Z,0.50
2019-01-27T20:12:50.757Z,0.60
2019-01-27T20:15:42.582Z,0.50
2019-01-27T20:18:33.332Z,0.50
2019-01-27T20:21:24.367Z,0.50
2019-01-27T20:23:58.339Z,0.50
2019-01-27T20:26:52.493Z,0.50
2019-01-27T20:29:40.298Z,0.40
2019-01-27T20:32:26.937Z,0.50
2019-01-27T20:35:17.895Z,0.57
2019-01-27T20:38:09.156Z,0.60
2019-01-27T20:40:57.010Z,0.50
2019-01-27T20:43:48.484Z,0.60
2019-01-27T20:46:39.376Z,0.50
2019-01-27T20:49:27.585Z,0.50
2019-01-27T20:52:04.767Z,0.50
2019-01-27T20:54:51.379Z,0.53
2019-01-27T20:57:45.426Z,0.93
2019-01-27T21:00:34.372Z,0.60
2019-01-27T21:03:16.363Z,0.72
2019-01-27T21:05:56.813Z,0.60
2019-01-27T21:08:31.300Z,0.70
2019-01-27T21:11:22.313Z,0.70
2019-01-27T21:13:56.246Z,0.50
2019-01-27T21:16:38.008Z,0.60
2019-01-27T21:19:29.374Z,0.57
2019-01-27T21:21:57.446Z,0.90
2019-01-27T21:24:25.933Z,0.80
2019-01-27T21:26:54.353Z,0.70
2019-01-27T21:29:22.474Z,0.60
2019-01-27T21:31:50.672Z,0.80
2019-01-27T21:34:18.919Z,0.72
2019-01-27T21:36:47.229Z,0.70
2019-01-27T21:39:15.398Z,0.93
2019-01-27T21:41:43.940Z,1.37
2019-01-27T21:44:12.112Z,0.95
2019-01-27T21:46:40.273Z,0.60
2019-01-27T21:49:08.850Z,0.70
2019-01-27T21:51:37.021Z,0.70
2019-01-27T21:54:05.069Z,0.60
2019-01-27T21:56:33.727Z,0.82
2019-01-27T21:59:02.331Z,0.90
2019-01-27T22:01:30.638Z,0.90
2019-01-27T22:03:59.215Z,0.70
2019-01-27T22:06:28.316Z,0.80
2019-01-27T22:08:57.008Z,1.25
2019-01-27T22:11:25.108Z,0.82
2019-01-27T22:13:53.679Z,0.88
2019-01-27T22:16:22.332Z,1.00
2019-01-27T22:18:50.487Z,0.72
2019-01-27T22:21:18.552Z,0.80
2019-01-27T22:23:46.678Z,1.15
2019-01-27T22:26:15.464Z,1.00
2019-01-27T22:28:43.510Z,0.80
2019-01-27T22:31:11.706Z,0.75
2019-01-27T22:33:39.917Z,0.80
2019-01-27T22:36:08.225Z,1.00
2019-01-27T22:38:36.362Z,1.00
2019-01-27T22:41:04.602Z,0.80
2019-01-27T22:43:32.856Z,0.85
2019-01-27T22:46:01.163Z,0.90
2019-01-27T22:48:29.698Z,1.00
2019-01-27T22:50:58.031Z,1.02
2019-01-27T22:53:26.044Z,1.50
2019-01-27T22:55:54.270Z,1.52
2019-01-27T22:58:22.693Z,1.40
2019-01-27T23:01:01.730Z,1.22
2019-01-27T23:03:42.713Z,2.10
2019-01-27T23:06:11.281Z,2.50
2019-01-27T23:08:39.390Z,1.80
2019-01-27T23:11:07.832Z,1.65
2019-01-27T23:13:35.851Z,2.40
2019-01-27T23:16:04.776Z,2.05
2019-01-27T23:18:32.770Z,2.00
2019-01-27T23:21:00.978Z,2.55
2019-01-27T23:23:29.121Z,2.95
2019-01-27T23:25:57.300Z,2.92
2019-01-27T23:28:25.646Z,1.87
2019-01-27T23:30:53.932Z,3.10
2019-01-27T23:33:22.329Z,3.08
2019-01-27T23:35:50.522Z,1.98
2019-01-27T23:38:18.557Z,2.65
2019-01-27T23:40:46.562Z,2.20
2019-01-27T23:43:19.817Z,2.75
2019-01-27T23:45:48.189Z,1.92
2019-01-27T23:48:16.456Z,3.60
2019-01-27T23:50:45.157Z,3.15
2019-01-27T23:53:13.663Z,4.08
2019-01-27T23:55:41.923Z,3.65
2019-01-27T23:58:09.956Z,4.15
